ADDS METAR Data INFO
IDs: Format: Raw Decoded Include TAF

Data at: 0945 UTC 25 Jun 2018

KACY 250854Z 31008KT 10SM CLR 21/18 A2989 RMK AO2 SLP121 T02110178 53013 $
KACY 250754Z 30007KT 10SM CLR 22/17 A2987 RMK AO2 SLP114 T02170172 $
KACY 250654Z 30008KT 10SM CLR 21/17 A2986 RMK AO2 SLP111 T02110172 $
KACY 250554Z 28010KT 10SM CLR 23/18 A2985 RMK AO2 SLP108 T02280178 10272 20228 50001 $
KACY 250454Z 29009KT 10SM CLR 24/19 A2985 RMK AO2 SLP109 T02390194 403280200 $
KACY 250354Z 28011KT 10SM CLR 25/21 A2985 RMK AO2 SLP108 T02500206 $
KACY 250254Z 26008KT 10SM SCT044 SCT060 SCT075 26/22 A2985 RMK AO2 SLP107 T02610222 53012 $
KACY 250154Z 24006KT 10SM FEW090 27/23 A2984 RMK AO2 SLP103 T02670233 $
KACY 250054Z 20003KT 10SM CLR 26/24 A2982 RMK AO2 SLP096 T02610239 $
KACY 242354Z 21005KT 10SM CLR 28/24 A2982 RMK AO2 SLP095 T02780239 10328 20278 53001 $
KACY 242254Z 19007KT 10SM CLR 28/23 A2981 RMK AO2 SLP092 T02830233 $
KACY 242154Z 18007KT 10SM CLR 28/23 A2981 RMK AO2 SLP092 T02830228 $
KACY 242054Z 17010KT 10SM FEW049 29/23 A2981 RMK AO2 SLP094 T02940228 56010 $
KACY 241954Z 25013G21KT 10SM SCT049 33/19 A2982 RMK AO2 SLP095 T03280194 $
KACY 241854Z 24011G19KT 10SM SCT045 SCT055 32/20 A2983 RMK AO2 SLP099 T03220200 $
KACY 241754Z 23012G19KT 10SM FEW036 SCT046 BKN060 31/22 A2984 RMK AO2 SLP104 T03110217 10311 20217 56008 $
KACY 241654Z 17008KT 10SM CLR 28/23 A2984 RMK AO2 SLP104 T02830228
KACY 241554Z 17008KT 10SM FEW045 SCT060 27/23 A2986 RMK AO2 SLP110 T02720228
KACY 241454Z VRB04KTH 2415Z AUTO 24005KT 10SM CLR 28/21 A2989 RMK AO2
KACY 241354Z 00000KT 10SM FEW011 26/22 A2986 RMK AO2 SLP112 T02560222
KACY 241328Z 20005KT24/2ZCZC WBCMTRMFV SAUS70 KMFV 241338 RRF METAR
KACY 241254Z 23003KTTNN ZCZC WBCMTRDMH SAUS80 KDMH 241300 RRF METAR
KACY 241220Z 20003KT A29N ZCZC PHLMTRPNE SPUS70 KPNE 241232 SPECI
KACY 241212Z 22004KT A29V4 T02170217
KACY 241205Z 23003KT 1 12/22 A2986 RMK AO2 T02170217
KACY 241154Z 00000KT10217 20200 5
KACY 241054Z 16003KTZCZC WBCMTRNHK SAXX60 KNHK 241100 RRN METAR
KACY 240954Z 11003KT 1/41 A2984 RMK AO2 SLP104 T02060206
KACY 240947Z 00000KT1 A260206
KACY 240854Z 00000KT SLP102 T02060206 53005
KACY 240754Z 000ZCZC PHLMTRWRI SPZZ40 KWRI 240822 RRD SPECI
KACY 240715Z 11003KT 1/4SM FG VV003 20/20 A2981 RMK AO2 T02000200
KACY 240654Z 00000KT 1/2SM FG VV002 20/20 A2982 RMK AO2 SLP098 T02000200
KACY 240635Z 00000KT 1/2SM FG VV002 20/20 A2982 RMK AO2 T02000200
KACY 240619Z 00000KT 1/4SM FG VV002 20/20 A2982 RMK AO2 T02000200
KACY 240554Z 00000KT 1/2SM FG VV002 20/20 A2982 RMK AO2 SLP097 60004 T02000200 10206 20200 58003
KACY 240523Z 08004KT 1/4SM FG VV002 20/20 A2983 RMK AO2 T02000200
KACY 240454Z 10004KT 1/2SM FG VV002 20/20 A2983 RMK AO2 SLP101 T02000200 402390194
KACY 240354Z 09003KT 1/2SM FG VV002 20/20 A2983 RMK AO2 SLP101 T02000200
KACY 240254Z 05004KT 1/2SM BR OVC002 20/20 A2983 RMK AO2 SFC VIS 3/4 SLP101 60004 T02000200 52002
KACY 240220Z 00000KT 1/2SM BR OVC003 20/20 A2984 RMK AO2 SFC VIS 1 1/4 T02000200
KACY 240211Z 11004KT 1 1/4SM BR OVC003 20/20 A2984 RMK AO2 T02000200
KACY 240154Z 09004KT 1 3/4SM BR OVC003 20/20 A2983 RMK AO2 SLP101 T02000200
KACY 240104Z 11007KT 4SM BR BKN007 OVC013 21/20 A2982 RMK AO2 T02060200
KACY 240054Z 10007KT 6SM BR SCT005 OVC010 21/20 A2982 RMK AO2 RAB23E54 CIG 009V013 SLP098 P0004 T02060200
KACY 240051Z 09005KT 6SM -RA BR SCT005 OVC012 21/20 A2983 RMK AO2 RAB23 P0004
KACY 240038Z 14006KT 4SM -RA BR BKN005 OVC012 21/20 A2983 RMK AO2 RAB23 P0004 T02060200
KACY 240031Z 12009KT 2 1/2SM -RA BR OVC005 21/20 A2983 RMK AO2 RAB23 P0004 T02060200
KACY 232354Z 06005KT 6SM BR OVC005 21/20 A2982 RMK AO2 SLP095 60000 T02110200 10239 20211 53001
KACY 232254Z 08006KT 7SM OVC005 21/20 A2980 RMK AO2 RAB25E35 SLP090 P0000 T02110200
KACY 232154Z 09006KT 7SM OVC006 22/21 A2981 RMK AO2 SLP092 T02220206